Time;durP1;ratioP1;P1;durP2;ratioP2;P2;SDS_P1;SDS_P2;PMS_P1;PMS_P2;Temp;Humidity;BMP_temperature;BMP_pressure;BME280_temperature;BME280_humidity;BME280_pressure;Samples;Min_cycle;Max_cycle;Signal;HPM_P1;HPM_P2
2023/10/01 00:00:42;;;;;;;9.35;6.88;;;;;;;;;;10329979;28;20034;-57
2023/10/01 00:05:43;;;;;;;12.40;8.02;;;;;;;;;;10330321;28;20030;-58
2023/10/01 00:10:44;;;;;;;12.05;7.78;;;;;;;;;;10329048;28;20058;-60
2023/10/01 00:15:44;;;;;;;9.15;7.30;;;;;;;;;;10329128;28;20033;-55
2023/10/01 00:20:46;;;;;;;10.52;7.50;;;;;;;;;;10329491;28;20038;-57
2023/10/01 00:25:47;;;;;;;11.15;7.70;;;;;;;;;;10328962;28;20038;-57
2023/10/01 00:30:48;;;;;;;11.88;7.53;;;;;;;;;;10328547;28;20486;-54
2023/10/01 00:35:48;;;;;;;8.75;7.20;;;;;;;;;;10328773;28;20474;-53
2023/10/01 00:40:50;;;;;;;9.00;7.03;;;;;;;;;;10328099;28;20038;-55
2023/10/01 00:45:50;;;;;;;11.85;6.93;;;;;;;;;;10327832;28;20442;-57
2023/10/01 00:50:55;;;;;;;10.70;6.93;;;;;;;;;;10327797;28;20081;-55
2023/10/01 00:55:59;;;;;;;11.90;6.72;;;;;;;;;;10326802;28;20033;-54
2023/10/01 01:00:59;;;;;;;7.95;7.07;;;;;;;;;;10327400;28;20101;-52
2023/10/01 01:06:13;;;;;;;11.07;6.47;;;;;;;;;;10327407;28;20443;-55
2023/10/01 01:11:15;;;;;;;10.43;6.63;;;;;;;;;;10326462;28;20123;-56
2023/10/01 01:16:19;;;;;;;9.80;6.38;;;;;;;;;;10326942;28;20494;-57
2023/10/01 01:21:20;;;;;;;11.57;6.35;;;;;;;;;;10327428;28;20105;-54
2023/10/01 01:26:21;;;;;;;8.75;6.38;;;;;;;;;;10327364;28;20114;-56
2023/10/01 01:31:27;;;;;;;9.85;6.63;;;;;;;;;;10326526;28;20019;-58
2023/10/01 01:36:30;;;;;;;10.35;6.50;;;;;;;;;;10326546;28;20109;-58
2023/10/01 01:41:30;;;;;;;8.55;6.43;;;;;;;;;;10326513;28;20031;-55
2023/10/01 01:46:31;;;;;;;12.43;6.68;;;;;;;;;;10328345;28;20096;-54
2023/10/01 01:51:31;;;;;;;6.53;5.63;;;;;;;;;;10334025;28;20494;-63
2023/10/01 01:56:39;;;;;;;9.10;6.18;;;;;;;;;;10334904;28;20026;-60
2023/10/01 02:01:40;;;;;;;;;;;;;;;;;;10334480;28;20500;-60
2023/10/01 02:06:42;;;;;;;7.47;6.13;;;;;;;;;;10333801;28;20004;-63
2023/10/01 02:11:43;;;;;;;9.68;6.28;;;;;;;;;;10333533;28;20129;-60
2023/10/01 02:16:44;;;;;;;8.55;6.18;;;;;;;;;;10333963;28;20287;-60
2023/10/01 02:21:49;;;;;;;13.98;6.40;;;;;;;;;;10333277;28;20030;-58
2023/10/01 02:26:53;;;;;;;6.60;5.75;;;;;;;;;;10333653;28;20038;-65
2023/10/01 02:31:57;;;;;;;9.82;6.13;;;;;;;;;;10333138;28;20048;-64
2023/10/01 02:36:58;;;;;;;13.30;6.50;;;;;;;;;;10332776;28;20033;-59
2023/10/01 02:47:16;;;;;;;11.07;5.97;;;;;;;;;;10332653;28;20034;-57
2023/10/01 02:52:18;;;;;;;;;;;;;;;;;;10333408;28;20101;-57
2023/10/01 02:57:24;;;;;;;7.13;6.43;;;;;;;;;;10331542;28;19913;-57
2023/10/01 03:02:25;;;;;;;11.88;5.63;;;;;;;;;;10331950;28;20364;-56
2023/10/01 03:07:33;;;;;;;7.60;5.82;;;;;;;;;;10331856;28;20275;-60
2023/10/01 03:12:40;;;;;;;8.05;5.90;;;;;;;;;;10332371;28;20093;-57
2023/10/01 03:17:55;;;;;;;6.82;5.75;;;;;;;;;;10331992;28;20030;-56
2023/10/01 03:22:56;;;;;;;8.43;5.65;;;;;;;;;;10331339;28;20508;-61
2023/10/01 03:28:01;;;;;;;8.48;5.68;;;;;;;;;;10331117;28;20030;-54
2023/10/01 03:33:07;;;;;;;7.70;6.05;;;;;;;;;;10331393;28;20042;-59
2023/10/01 03:38:14;;;;;;;6.40;5.40;;;;;;;;;;10331305;28;20038;-58
2023/10/01 03:43:18;;;;;;;6.35;5.60;;;;;;;;;;10330449;28;20022;-58
2023/10/01 03:48:19;;;;;;;6.43;5.22;;;;;;;;;;10330768;28;20037;-63
2023/10/01 03:53:20;;;;;;;9.43;5.50;;;;;;;;;;10330074;28;20057;-58
2023/10/01 03:58:25;;;;;;;6.05;5.18;;;;;;;;;;10330032;28;20026;-56
2023/10/01 04:03:36;;;;;;;12.63;5.40;;;;;;;;;;10329631;28;20030;-57
2023/10/01 04:08:44;;;;;;;9.82;5.25;;;;;;;;;;10329421;28;20038;-55
2023/10/01 04:14:07;;;;;;;6.80;5.30;;;;;;;;;;10329090;28;20053;-60
2023/10/01 04:19:11;;;;;;;8.65;5.43;;;;;;;;;;10328970;28;20061;-63
2023/10/01 04:24:13;;;;;;;6.22;5.50;;;;;;;;;;10328563;28;20486;-58
2023/10/01 04:29:16;;;;;;;6.45;5.55;;;;;;;;;;10328815;28;20052;-59
2023/10/01 04:34:18;;;;;;;8.35;5.80;;;;;;;;;;10329064;28;20028;-61
2023/10/01 04:39:19;;;;;;;7.38;5.20;;;;;;;;;;10328221;28;20446;-61
2023/10/01 04:44:22;;;;;;;8.90;5.07;;;;;;;;;;10328201;28;20030;-59
2023/10/01 04:49:39;;;;;;;10.30;5.25;;;;;;;;;;10328002;28;20265;-57
2023/10/01 04:54:44;;;;;;;7.40;5.17;;;;;;;;;;10328346;28;20113;-61
2023/10/01 04:59:56;;;;;;;7.43;5.97;;;;;;;;;;10328008;28;20034;-57
2023/10/01 05:05:09;;;;;;;6.20;5.13;;;;;;;;;;10327624;28;20117;-59
2023/10/01 05:10:09;;;;;;;6.93;5.53;;;;;;;;;;10327021;28;20949;-57
2023/10/01 05:15:25;;;;;;;9.80;5.80;;;;;;;;;;10327197;28;20111;-59
2023/10/01 05:20:25;;;;;;;6.50;5.75;;;;;;;;;;10326995;28;20073;-58
2023/10/01 05:25:27;;;;;;;13.02;6.00;;;;;;;;;;10326839;28;20041;-66
2023/10/01 05:30:42;;;;;;;8.02;5.82;;;;;;;;;;10326277;28;20053;-60
2023/10/01 05:35:47;;;;;;;7.93;5.43;;;;;;;;;;10326637;28;20034;-61
2023/10/01 05:40:52;;;;;;;9.13;5.78;;;;;;;;;;10326795;28;20030;-60
2023/10/01 05:46:01;;;;;;;10.75;5.43;;;;;;;;;;10327087;28;20123;-64
2023/10/01 05:51:02;;;;;;;7.22;6.00;;;;;;;;;;10326101;28;20410;-64
2023/10/01 05:56:07;;;;;;;11.40;5.40;;;;;;;;;;10326410;28;20034;-64
2023/10/01 06:01:15;;;;;;;9.55;5.40;;;;;;;;;;10341094;28;20030;-65
2023/10/01 06:06:24;;;;;;;7.32;5.35;;;;;;;;;;10326489;28;20041;-66
2023/10/01 06:11:39;;;;;;;6.07;5.30;;;;;;;;;;10325896;28;20505;-64
2023/10/01 06:16:40;;;;;;;5.65;4.70;;;;;;;;;;10326195;28;20026;-66
2023/10/01 06:21:41;;;;;;;8.85;5.20;;;;;;;;;;10326075;28;20399;-65
2023/10/01 06:26:45;;;;;;;9.40;5.63;;;;;;;;;;10325985;28;20386;-63
2023/10/01 06:31:52;;;;;;;8.35;5.65;;;;;;;;;;10325997;28;20034;-65
2023/10/01 06:36:58;;;;;;;10.70;6.28;;;;;;;;;;10332879;28;20470;-63
2023/10/01 06:42:18;;;;;;;5.47;4.97;;;;;;;;;;10331738;28;20023;-64
2023/10/01 06:47:22;;;;;;;9.82;5.55;;;;;;;;;;10342373;28;20474;-63
2023/10/01 06:52:26;;;;;;;5.85;4.90;;;;;;;;;;10330274;28;20030;-64
2023/10/01 06:57:33;;;;;;;7.05;5.40;;;;;;;;;;10329808;28;20387;-64
2023/10/01 07:02:34;;;;;;;9.25;5.72;;;;;;;;;;10330797;28;20344;-63
2023/10/01 07:07:35;;;;;;;8.82;5.70;;;;;;;;;;10332219;28;20038;-61
2023/10/01 07:12:38;;;;;;;7.03;5.68;;;;;;;;;;10331056;28;20046;-54
2023/10/01 07:17:39;;;;;;;6.97;5.45;;;;;;;;;;10331314;28;20044;-60
2023/10/01 07:22:44;;;;;;;8.43;5.22;;;;;;;;;;10331258;28;20022;-63
2023/10/01 07:27:44;;;;;;;8.93;5.18;;;;;;;;;;10330657;28;20030;-58
2023/10/01 07:32:45;;;;;;;7.03;5.18;;;;;;;;;;10330844;28;20027;-57
2023/10/01 07:37:48;;;;;;;7.13;5.32;;;;;;;;;;10331135;28;20026;-61
2023/10/01 07:42:54;;;;;;;9.75;5.35;;;;;;;;;;10330119;28;20077;-62
2023/10/01 07:47:55;;;;;;;6.53;4.97;;;;;;;;;;10330333;28;20257;-64
2023/10/01 07:53:03;;;;;;;8.50;5.07;;;;;;;;;;10330979;28;20541;-56
2023/10/01 07:58:23;;;;;;;8.05;5.03;;;;;;;;;;10330864;28;20078;-64
2023/10/01 08:08:37;;;;;;;7.78;5.28;;;;;;;;;;10329391;28;20316;-61
2023/10/01 08:13:37;;;;;;;11.00;5.07;;;;;;;;;;10328477;28;20038;-66
2023/10/01 08:18:46;;;;;;;7.18;5.47;;;;;;;;;;10329164;28;20034;-60
2023/10/01 08:23:48;;;;;;;15.60;5.32;;;;;;;;;;10328292;28;20068;-67
2023/10/01 08:28:58;;;;;;;11.77;4.85;;;;;;;;;;10327596;28;20378;-64
2023/10/01 08:34:22;;;;;;;9.63;4.40;;;;;;;;;;10327653;28;20161;-65
2023/10/01 08:39:33;;;;;;;8.55;4.63;;;;;;;;;;10327235;28;20092;-65
2023/10/01 08:45:05;;;;;;;6.90;4.75;;;;;;;;;;10326916;28;20478;-58
2023/10/01 09:00:51;;;;;;;11.32;4.15;;;;;;;;;;10326870;28;20093;-61
2023/10/01 09:06:24;;;;;;;6.75;4.63;;;;;;;;;;10327682;28;20081;-66
2023/10/01 09:11:35;;;;;;;11.05;5.30;;;;;;;;;;10327218;28;20038;-65
2023/10/01 09:16:42;;;;;;;8.82;4.82;;;;;;;;;;10327721;28;20026;-66
2023/10/01 09:21:46;;;;;;;6.57;4.97;;;;;;;;;;10327007;28;20031;-67
2023/10/01 09:26:55;;;;;;;6.88;5.15;;;;;;;;;;10326753;28;20536;-62
2023/10/01 09:31:59;;;;;;;6.80;5.15;;;;;;;;;;10326087;28;20034;-57
2023/10/01 09:37:35;;;;;;;9.50;4.93;;;;;;;;;;10327168;28;20041;-59
2023/10/01 09:42:44;;;;;;;9.98;6.05;;;;;;;;;;10327171;28;20029;-65
2023/10/01 09:47:47;;;;;;;6.85;4.88;;;;;;;;;;10326815;28;20065;-63
2023/10/01 09:52:48;;;;;;;8.30;5.35;;;;;;;;;;10325827;28;20030;-66
2023/10/01 09:57:50;;;;;;;8.45;5.30;;;;;;;;;;10340337;28;20467;-66
2023/10/01 10:02:54;;;;;;;10.50;5.80;;;;;;;;;;10325492;28;20468;-64
2023/10/01 10:07:56;;;;;;;8.00;5.47;;;;;;;;;;10327773;28;20034;-63
2023/10/01 10:13:36;;;;;;;8.73;5.78;;;;;;;;;;10333868;28;20077;-63
2023/10/01 10:19:09;;;;;;;7.32;5.72;;;;;;;;;;10333803;28;20103;-66
2023/10/01 10:24:21;;;;;;;7.07;5.55;;;;;;;;;;10333305;28;20378;-62
2023/10/01 10:29:22;;;;;;;7.00;5.22;;;;;;;;;;10333736;28;20034;-57
2023/10/01 10:34:26;;;;;;;10.77;5.68;;;;;;;;;;10333418;28;20026;-62
2023/10/01 10:39:45;;;;;;;8.40;5.50;;;;;;;;;;10331780;28;20036;-59
2023/10/01 10:45:42;;;;;;;6.82;5.55;;;;;;;;;;10332209;28;20122;-61
2023/10/01 10:50:53;;;;;;;8.65;5.47;;;;;;;;;;10331602;28;20070;-58
2023/10/01 10:56:07;;;;;;;6.90;5.25;;;;;;;;;;10331815;28;20018;-58
2023/10/01 11:01:23;;;;;;;7.47;5.70;;;;;;;;;;10331889;28;20057;-62
2023/10/01 11:06:29;;;;;;;9.70;5.57;;;;;;;;;;10331779;28;20042;-59
2023/10/01 11:11:41;;;;;;;9.65;5.55;;;;;;;;;;10330835;28;20501;-62
2023/10/01 11:16:46;;;;;;;8.95;5.82;;;;;;;;;;10331704;28;20034;-62
2023/10/01 11:21:55;;;;;;;12.35;5.35;;;;;;;;;;10329083;28;20030;-62
2023/10/01 11:27:19;;;;;;;7.75;5.43;;;;;;;;;;10330978;28;20065;-57
2023/10/01 11:32:20;;;;;;;9.15;5.57;;;;;;;;;;10331106;28;20044;-57
2023/10/01 11:37:27;;;;;;;9.43;5.72;;;;;;;;;;10330849;28;20475;-57
2023/10/01 11:42:52;;;;;;;7.97;5.80;;;;;;;;;;10330445;28;20037;-62
2023/10/01 11:48:05;;;;;;;8.85;5.70;;;;;;;;;;10330726;28;20188;-63
2023/10/01 11:53:06;;;;;;;7.15;5.15;;;;;;;;;;10330141;28;20057;-59
2023/10/01 11:58:06;;;;;;;6.88;5.07;;;;;;;;;;10330413;28;20081;-61
2023/10/01 12:03:10;;;;;;;7.18;5.30;;;;;;;;;;10329473;28;20108;-56
2023/10/01 12:08:34;;;;;;;9.85;5.45;;;;;;;;;;10330463;28;20026;-60
2023/10/01 12:13:35;;;;;;;9.32;5.50;;;;;;;;;;10329179;28;20050;-60
2023/10/01 12:18:46;;;;;;;7.45;5.43;;;;;;;;;;10329196;28;20022;-58
2023/10/01 12:23:49;;;;;;;8.20;5.22;;;;;;;;;;10329216;28;20089;-59
2023/10/01 12:34:08;;;;;;;7.07;5.32;;;;;;;;;;10328429;28;20026;-56
2023/10/01 12:44:30;;;;;;;6.50;5.20;;;;;;;;;;10328789;28;20033;-60
2023/10/01 12:49:32;;;;;;;14.65;5.80;;;;;;;;;;10328497;28;20117;-57
2023/10/01 12:54:36;;;;;;;5.43;4.90;;;;;;;;;;10328399;28;20026;-54
2023/10/01 12:59:42;;;;;;;7.57;5.20;;;;;;;;;;10327670;28;20457;-59
2023/10/01 13:04:43;;;;;;;6.25;5.10;;;;;;;;;;10328055;28;20036;-60
2023/10/01 13:15:02;;;;;;;7.25;4.70;;;;;;;;;;10327400;28;20081;-59
2023/10/01 13:20:18;;;;;;;8.13;5.80;;;;;;;;;;10327351;28;20433;-57
2023/10/01 13:25:20;;;;;;;6.72;5.18;;;;;;;;;;10327663;28;20042;-58
2023/10/01 13:30:22;;;;;;;6.65;4.80;;;;;;;;;;10327021;28;20026;-64
2023/10/01 14:12:56;;;;;;;6.05;4.75;;;;;;;;;;10333895;28;20062;-62
2023/10/01 14:17:58;;;;;;;6.95;5.57;;;;;;;;;;10335078;28;20096;-58
2023/10/01 14:23:00;;;;;;;7.68;5.10;;;;;;;;;;10334237;28;20034;-60
2023/10/01 14:28:01;;;;;;;6.47;4.55;;;;;;;;;;10333484;28;20508;-64
2023/10/01 14:33:23;;;;;;;4.88;4.38;;;;;;;;;;10333292;28;20029;-58
2023/10/01 14:38:36;;;;;;;5.90;4.97;;;;;;;;;;10333119;28;20049;-58
2023/10/01 14:43:48;;;;;;;8.30;4.45;;;;;;;;;;10332916;28;20359;-61
2023/10/01 14:48:49;;;;;;;5.72;4.80;;;;;;;;;;10333149;28;20042;-62
2023/10/01 14:53:54;;;;;;;5.65;4.97;;;;;;;;;;10332465;28;20281;-60
2023/10/01 14:58:55;;;;;;;6.32;4.90;;;;;;;;;;10332521;28;20087;-62
2023/10/01 15:03:55;;;;;;;5.30;4.25;;;;;;;;;;10332676;28;20038;-58
2023/10/01 15:08:58;;;;;;;7.60;4.85;;;;;;;;;;10332441;28;20038;-62
2023/10/01 15:14:11;;;;;;;5.40;4.68;;;;;;;;;;10331652;28;20054;-56
2023/10/01 15:19:11;;;;;;;6.10;5.00;;;;;;;;;;10331302;28;20589;-63
2023/10/01 15:24:12;;;;;;;6.20;5.10;;;;;;;;;;10331827;28;20026;-62
2023/10/01 15:29:13;;;;;;;5.47;4.47;;;;;;;;;;10331186;28;20026;-59
2023/10/01 15:34:19;;;;;;;6.88;4.88;;;;;;;;;;10330904;28;20657;-59
2023/10/01 15:44:43;;;;;;;6.32;4.70;;;;;;;;;;10330694;28;20089;-60
2023/10/01 15:49:44;;;;;;;6.72;4.30;;;;;;;;;;10330388;28;20080;-58
2023/10/01 15:54:44;;;;;;;6.90;4.47;;;;;;;;;;10330289;28;20084;-57
2023/10/01 15:59:45;;;;;;;5.20;4.55;;;;;;;;;;10330047;28;20143;-58
2023/10/01 16:04:46;;;;;;;5.63;4.72;;;;;;;;;;10329379;28;20026;-57
2023/10/01 16:09:48;;;;;;;6.57;4.85;;;;;;;;;;10329698;28;20265;-58
2023/10/01 16:14:56;;;;;;;6.50;4.90;;;;;;;;;;10329248;28;20149;-59
2023/10/01 16:19:56;;;;;;;;;;;;;;;;;;10330123;28;20061;-59
2023/10/01 16:25:02;;;;;;;5.72;4.50;;;;;;;;;;10329490;28;19914;-53
2023/10/01 16:30:16;;;;;;;6.72;4.80;;;;;;;;;;10328054;28;20033;-59
2023/10/01 16:35:28;;;;;;;4.72;4.13;;;;;;;;;;10329022;28;20026;-63
2023/10/01 16:40:30;;;;;;;8.13;4.47;;;;;;;;;;10328472;28;20062;-64
2023/10/01 16:45:38;;;;;;;5.53;4.57;;;;;;;;;;10327481;28;20026;-58
2023/10/01 16:50:48;;;;;;;;;;;;;;;;;;10328533;28;20022;-62
2023/10/01 16:55:53;;;;;;;5.85;4.38;;;;;;;;;;10328027;28;19913;-62
2023/10/01 17:00:54;;;;;;;5.40;4.60;;;;;;;;;;10327700;28;20030;-59
2023/10/01 17:06:06;;;;;;;9.18;4.88;;;;;;;;;;10324921;28;20022;-58
2023/10/01 17:11:08;;;;;;;10.95;4.97;;;;;;;;;;10326114;28;20050;-62
2023/10/01 17:16:23;;;;;;;9.32;4.97;;;;;;;;;;10326331;28;20425;-59
2023/10/01 17:21:28;;;;;;;8.15;5.32;;;;;;;;;;10341520;28;20031;-61
2023/10/01 17:26:29;;;;;;;8.18;5.35;;;;;;;;;;10327374;28;20033;-62
2023/10/01 17:31:39;;;;;;;9.27;6.10;;;;;;;;;;10326354;28;20474;-62
2023/10/01 17:36:40;;;;;;;8.80;5.53;;;;;;;;;;10326657;28;20030;-62
2023/10/01 17:41:41;;;;;;;8.82;5.72;;;;;;;;;;10327059;28;20037;-63
2023/10/01 17:46:42;;;;;;;8.73;6.10;;;;;;;;;;10326418;28;20475;-62
2023/10/01 17:51:44;;;;;;;10.70;5.97;;;;;;;;;;10326474;28;20117;-61
2023/10/01 17:56:45;;;;;;;11.20;5.93;;;;;;;;;;10324543;28;20022;-61
2023/10/01 18:01:51;;;;;;;10.40;5.25;;;;;;;;;;10326401;28;20390;-62
2023/10/01 18:06:55;;;;;;;12.43;5.95;;;;;;;;;;10326456;28;20031;-61
2023/10/01 18:12:13;;;;;;;13.15;5.75;;;;;;;;;;10326144;28;20138;-61
2023/10/01 18:17:14;;;;;;;14.00;6.10;;;;;;;;;;10325881;28;20096;-62
2023/10/01 18:22:17;;;;;;;10.40;6.15;;;;;;;;;;10325802;28;20073;-60
2023/10/01 18:27:23;;;;;;;9.32;5.63;;;;;;;;;;10325389;28;20041;-62
2023/10/01 18:32:24;;;;;;;9.07;5.07;;;;;;;;;;10333282;28;20061;-62
2023/10/01 18:37:27;;;;;;;7.43;5.10;;;;;;;;;;10347651;28;20061;-61
2023/10/01 18:42:27;;;;;;;9.73;5.68;;;;;;;;;;10332908;28;20058;-60
2023/10/01 18:47:29;;;;;;;8.15;5.63;;;;;;;;;;10332279;28;20109;-61
2023/10/01 18:52:30;;;;;;;8.00;5.30;;;;;;;;;;10332859;28;20379;-61
2023/10/01 18:57:32;;;;;;;10.30;5.50;;;;;;;;;;10332559;28;20026;-64
2023/10/01 19:02:34;;;;;;;11.25;5.93;;;;;;;;;;10332728;28;20114;-61
2023/10/01 19:07:34;;;;;;;9.38;5.53;;;;;;;;;;10332303;28;20030;-62
2023/10/01 19:12:35;;;;;;;15.13;5.22;;;;;;;;;;10331680;28;20500;-62
2023/10/01 19:17:35;;;;;;;11.50;5.72;;;;;;;;;;10331736;28;20030;-63
2023/10/01 19:22:37;;;;;;;12.52;5.68;;;;;;;;;;10330359;28;20037;-62
2023/10/01 19:27:38;;;;;;;9.23;5.10;;;;;;;;;;10330265;28;20038;-64
2023/10/01 19:32:39;;;;;;;6.90;5.30;;;;;;;;;;10330409;28;20033;-60
2023/10/01 19:37:44;;;;;;;10.07;5.28;;;;;;;;;;10328551;28;20031;-60
2023/10/01 19:42:52;;;;;;;7.88;5.20;;;;;;;;;;10329105;28;20081;-62
2023/10/01 19:47:55;;;;;;;7.28;5.10;;;;;;;;;;10329366;28;20041;-62
2023/10/01 19:52:55;;;;;;;12.07;5.95;;;;;;;;;;10329478;28;20234;-62
2023/10/01 19:58:00;;;;;;;9.20;5.43;;;;;;;;;;10328887;28;20057;-60
2023/10/01 20:03:12;;;;;;;22.13;5.05;;;;;;;;;;10329833;28;20052;-63
2023/10/01 20:08:14;;;;;;;16.35;6.43;;;;;;;;;;10328970;28;20034;-62
2023/10/01 20:13:15;;;;;;;19.35;6.18;;;;;;;;;;10329150;28;20042;-62
2023/10/01 20:18:19;;;;;;;12.70;6.55;;;;;;;;;;10327691;28;20034;-60
2023/10/01 20:23:20;;;;;;;11.57;6.38;;;;;;;;;;10328679;28;20023;-62
2023/10/01 20:28:27;;;;;;;11.35;6.57;;;;;;;;;;10344023;28;20461;-61
2023/10/01 20:33:32;;;;;;;11.73;6.80;;;;;;;;;;10328565;28;20400;-65
2023/10/01 20:38:32;;;;;;;13.55;6.88;;;;;;;;;;10328817;28;20032;-66
2023/10/01 20:43:33;;;;;;;11.45;7.75;;;;;;;;;;10328714;28;20394;-66
2023/10/01 20:48:36;;;;;;;11.93;7.50;;;;;;;;;;10328090;28;20033;-65
2023/10/01 20:53:42;;;;;;;11.23;7.93;;;;;;;;;;10327715;28;20258;-66
2023/10/01 20:58:46;;;;;;;13.00;7.53;;;;;;;;;;10327059;28;20543;-65
2023/10/01 21:03:50;;;;;;;16.67;7.85;;;;;;;;;;10327247;28;20026;-63
2023/10/01 21:08:52;;;;;;;13.90;7.30;;;;;;;;;;10327241;28;20473;-61
2023/10/01 21:14:02;;;;;;;10.23;7.80;;;;;;;;;;10327086;28;20038;-66
2023/10/01 21:19:03;;;;;;;15.38;7.95;;;;;;;;;;10327161;28;20471;-64
2023/10/01 21:24:05;;;;;;;14.13;7.75;;;;;;;;;;10326067;28;20029;-65
2023/10/01 21:29:18;;;;;;;15.23;7.85;;;;;;;;;;10327735;28;20037;-61
2023/10/01 21:34:18;;;;;;;14.13;7.80;;;;;;;;;;10327005;28;20547;-63
2023/10/01 21:39:23;;;;;;;15.95;8.02;;;;;;;;;;10326654;28;20142;-63
2023/10/01 21:44:26;;;;;;;17.63;7.60;;;;;;;;;;10326667;28;20165;-64
2023/10/01 21:49:28;;;;;;;9.85;7.65;;;;;;;;;;10327038;28;20058;-65
2023/10/01 21:54:29;;;;;;;14.52;7.78;;;;;;;;;;10326669;28;20034;-63
2023/10/01 21:59:36;;;;;;;15.45;7.70;;;;;;;;;;10326515;28;20041;-64
2023/10/01 22:04:59;;;;;;;14.75;7.65;;;;;;;;;;10330046;28;20038;-62
2023/10/01 22:10:07;;;;;;;13.88;7.45;;;;;;;;;;10334248;28;20329;-61
2023/10/01 22:15:22;;;;;;;11.57;7.53;;;;;;;;;;10334608;28;20049;-57
2023/10/01 22:20:30;;;;;;;16.17;7.97;;;;;;;;;;10334454;28;20089;-63
2023/10/01 22:25:31;;;;;;;;;;;;;;;;;;10334286;28;20054;-65
2023/10/01 22:30:33;;;;;;;16.08;7.85;;;;;;;;;;10333455;28;19914;-66
2023/10/01 22:35:34;;;;;;;10.63;7.75;;;;;;;;;;10333612;28;20042;-63
2023/10/01 22:40:53;;;;;;;11.18;7.05;;;;;;;;;;10333026;28;20069;-66
2023/10/01 22:45:54;;;;;;;7.53;6.75;;;;;;;;;;10346259;28;20054;-63
2023/10/01 22:51:02;;;;;;;12.43;7.78;;;;;;;;;;10332955;28;20034;-63
2023/10/01 22:56:05;;;;;;;11.02;7.60;;;;;;;;;;10332872;28;20038;-64
2023/10/01 23:01:10;;;;;;;13.02;7.93;;;;;;;;;;10332654;28;20109;-58
2023/10/01 23:06:13;;;;;;;18.58;7.55;;;;;;;;;;10332458;28;20343;-66
2023/10/01 23:11:23;;;;;;;10.88;7.38;;;;;;;;;;10331523;28;20133;-67
2023/10/01 23:16:28;;;;;;;15.43;8.13;;;;;;;;;;10330380;28;20029;-66
2023/10/01 23:21:53;;;;;;;8.98;7.03;;;;;;;;;;10331778;28;20066;-65
2023/10/01 23:26:55;;;;;;;10.18;7.40;;;;;;;;;;10331211;28;20070;-60
2023/10/01 23:37:16;;;;;;;14.18;7.35;;;;;;;;;;10330868;28;20038;-67
2023/10/01 23:42:19;;;;;;;12.45;7.35;;;;;;;;;;10330496;28;20471;-60
2023/10/01 23:47:28;;;;;;;8.93;7.25;;;;;;;;;;10330621;28;20058;-65
2023/10/01 23:52:30;;;;;;;14.63;7.18;;;;;;;;;;10330607;28;20030;-66
2023/10/01 23:57:31;;;;;;;12.85;7.80;;;;;;;;;;10330031;28;20030;-63
